sensor_id;sensor_type;location;lat;lon;timestamp;pressure;altitude;pressure_sealevel;temperature;humidity
37610;BME280;23457;51.966;8.230;2023-02-27T00:02:26;102136.44;;;0.43;87.62
37610;BME280;23457;51.966;8.230;2023-02-27T00:04:53;102132.47;;;0.47;87.56
37610;BME280;23457;51.966;8.230;2023-02-27T00:07:20;102137.53;;;0.57;87.43
37610;BME280;23457;51.966;8.230;2023-02-27T00:09:51;102138.03;;;0.53;87.92
37610;BME280;23457;51.966;8.230;2023-02-27T00:12:18;102135.78;;;0.46;87.55
37610;BME280;23457;51.966;8.230;2023-02-27T00:14:45;102136.50;;;0.33;88.52
37610;BME280;23457;51.966;8.230;2023-02-27T00:17:12;102130.94;;;0.39;88.20
37610;BME280;23457;51.966;8.230;2023-02-27T00:19:39;102130.84;;;0.37;88.53
37610;BME280;23457;51.966;8.230;2023-02-27T00:22:05;102127.78;;;0.31;88.54
37610;BME280;23457;51.966;8.230;2023-02-27T00:24:32;102133.41;;;0.37;89.14
37610;BME280;23457;51.966;8.230;2023-02-27T00:26:59;102127.41;;;0.26;89.42
37610;BME280;23457;51.966;8.230;2023-02-27T00:29:26;102130.72;;;0.35;89.08
37610;BME280;23457;51.966;8.230;2023-02-27T00:31:52;102132.09;;;0.42;88.77
37610;BME280;23457;51.966;8.230;2023-02-27T00:34:19;102133.03;;;0.32;89.31
37610;BME280;23457;51.966;8.230;2023-02-27T00:36:46;102136.19;;;0.40;88.87
37610;BME280;23457;51.966;8.230;2023-02-27T00:39:13;102126.53;;;0.26;88.99
37610;BME280;23457;51.966;8.230;2023-02-27T00:41:41;102132.00;;;0.30;89.24
37610;BME280;23457;51.966;8.230;2023-02-27T00:44:08;102126.31;;;0.23;89.65
37610;BME280;23457;51.966;8.230;2023-02-27T00:46:35;102126.56;;;0.16;89.26
37610;BME280;23457;51.966;8.230;2023-02-27T00:49:02;102140.00;;;0.13;89.52
37610;BME280;23457;51.966;8.230;2023-02-27T00:51:29;102133.34;;;0.15;89.76
37610;BME280;23457;51.966;8.230;2023-02-27T00:53:56;102135.31;;;0.08;89.30
37610;BME280;23457;51.966;8.230;2023-02-27T00:56:23;102142.84;;;0.06;90.59
37610;BME280;23457;51.966;8.230;2023-02-27T00:58:50;102143.63;;;0.05;89.69
37610;BME280;23457;51.966;8.230;2023-02-27T01:01:16;102138.47;;;0.15;90.45
37610;BME280;23457;51.966;8.230;2023-02-27T01:03:43;102136.44;;;0.11;89.91
37610;BME280;23457;51.966;8.230;2023-02-27T01:06:10;102134.78;;;0.02;90.36
37610;BME280;23457;51.966;8.230;2023-02-27T01:08:37;102142.75;;;-0.06;90.26
37610;BME280;23457;51.966;8.230;2023-02-27T01:11:04;102136.00;;;-0.15;91.28
37610;BME280;23457;51.966;8.230;2023-02-27T01:13:31;102139.47;;;-0.15;91.39
37610;BME280;23457;51.966;8.230;2023-02-27T01:15:58;102136.91;;;-0.15;91.41
37610;BME280;23457;51.966;8.230;2023-02-27T01:18:24;102137.28;;;-0.20;91.81
37610;BME280;23457;51.966;8.230;2023-02-27T01:20:55;102133.06;;;-0.20;91.79
37610;BME280;23457;51.966;8.230;2023-02-27T01:23:22;102138.44;;;-0.17;92.12
37610;BME280;23457;51.966;8.230;2023-02-27T01:25:49;102131.91;;;-0.23;92.18
37610;BME280;23457;51.966;8.230;2023-02-27T01:28:15;102137.56;;;-0.27;91.99
37610;BME280;23457;51.966;8.230;2023-02-27T01:30:42;102137.34;;;-0.41;92.57
37610;BME280;23457;51.966;8.230;2023-02-27T01:33:12;102132.44;;;-0.38;93.16
37610;BME280;23457;51.966;8.230;2023-02-27T01:35:39;102137.56;;;-0.27;92.70
37610;BME280;23457;51.966;8.230;2023-02-27T01:38:06;102131.44;;;-0.29;92.89
37610;BME280;23457;51.966;8.230;2023-02-27T01:40:38;102132.47;;;-0.27;92.66
37610;BME280;23457;51.966;8.230;2023-02-27T01:43:09;102131.59;;;-0.38;92.84
37610;BME280;23457;51.966;8.230;2023-02-27T01:45:41;102127.72;;;-0.33;93.04
37610;BME280;23457;51.966;8.230;2023-02-27T01:48:23;102128.50;;;-0.34;93.54
37610;BME280;23457;51.966;8.230;2023-02-27T01:50:56;102132.44;;;-0.38;94.01
37610;BME280;23457;51.966;8.230;2023-02-27T01:53:26;102126.06;;;-0.32;93.32
37610;BME280;23457;51.966;8.230;2023-02-27T01:55:57;102123.38;;;-0.34;93.77
37610;BME280;23457;51.966;8.230;2023-02-27T01:58:26;102121.22;;;-0.29;93.45
37610;BME280;23457;51.966;8.230;2023-02-27T02:00:53;102124.81;;;-0.27;93.48
37610;BME280;23457;51.966;8.230;2023-02-27T02:05:56;102125.31;;;-0.31;94.09
37610;BME280;23457;51.966;8.230;2023-02-27T02:08:25;102120.72;;;-0.25;93.43
37610;BME280;23457;51.966;8.230;2023-02-27T02:10:56;102118.16;;;-0.25;93.41
37610;BME280;23457;51.966;8.230;2023-02-27T02:13:24;102127.06;;;-0.20;93.02
37610;BME280;23457;51.966;8.230;2023-02-27T02:16:03;102131.78;;;-0.15;92.47
37610;BME280;23457;51.966;8.230;2023-02-27T02:18:48;102132.16;;;-0.10;92.63
37610;BME280;23457;51.966;8.230;2023-02-27T02:24:51;102123.72;;;-0.09;92.15
37610;BME280;23457;51.966;8.230;2023-02-27T02:27:42;102121.56;;;-0.15;91.98
37610;BME280;23457;51.966;8.230;2023-02-27T02:47:17;102136.94;;;-0.45;92.99
37610;BME280;23457;51.966;8.230;2023-02-27T02:52:50;102135.28;;;-0.45;93.90
37610;BME280;23457;51.966;8.230;2023-02-27T02:55:28;102138.47;;;-0.37;94.00
37610;BME280;23457;51.966;8.230;2023-02-27T03:00:45;102137.19;;;-0.32;93.25
37610;BME280;23457;51.966;8.230;2023-02-27T03:05:55;102130.19;;;-0.45;93.97
37610;BME280;23457;51.966;8.230;2023-02-27T03:08:31;102133.50;;;-0.46;94.11
37610;BME280;23457;51.966;8.230;2023-02-27T03:11:00;102136.06;;;-0.46;94.19
37610;BME280;23457;51.966;8.230;2023-02-27T03:13:33;102135.28;;;-0.45;94.14
37610;BME280;23457;51.966;8.230;2023-02-27T03:18:36;102130.84;;;-0.67;94.08
37610;BME280;23457;51.966;8.230;2023-02-27T03:21:13;102127.25;;;-0.80;94.88
37610;BME280;23457;51.966;8.230;2023-02-27T03:23:43;102132.72;;;-0.75;95.03
37610;BME280;23457;51.966;8.230;2023-02-27T03:26:10;102134.28;;;-0.77;95.20
37610;BME280;23457;51.966;8.230;2023-02-27T03:28:53;102134.78;;;-0.91;94.94
37610;BME280;23457;51.966;8.230;2023-02-27T03:31:26;102135.41;;;-0.94;95.81
37610;BME280;23457;51.966;8.230;2023-02-27T03:34:01;102138.94;;;-1.32;96.46
37610;BME280;23457;51.966;8.230;2023-02-27T03:36:53;102145.34;;;-1.17;96.50
37610;BME280;23457;51.966;8.230;2023-02-27T03:42:13;102144.19;;;-1.00;96.82
37610;BME280;23457;51.966;8.230;2023-02-27T03:45:31;102148.53;;;-0.99;96.36
37610;BME280;23457;51.966;8.230;2023-02-27T03:48:00;102144.44;;;-1.18;97.27
37610;BME280;23457;51.966;8.230;2023-02-27T03:50:28;102146.75;;;-1.11;97.41
37610;BME280;23457;51.966;8.230;2023-02-27T03:52:55;102152.97;;;-1.27;97.27
37610;BME280;23457;51.966;8.230;2023-02-27T03:55:32;102161.00;;;-1.23;97.93
37610;BME280;23457;51.966;8.230;2023-02-27T03:58:00;102162.03;;;-1.21;97.89
37610;BME280;23457;51.966;8.230;2023-02-27T04:00:28;102159.09;;;-1.25;97.80
37610;BME280;23457;51.966;8.230;2023-02-27T04:02:56;102165.16;;;-1.43;97.75
37610;BME280;23457;51.966;8.230;2023-02-27T04:05:27;102170.16;;;-1.35;98.42
37610;BME280;23457;51.966;8.230;2023-02-27T04:22:11;102181.63;;;-1.40;98.20
37610;BME280;23457;51.966;8.230;2023-02-27T04:27:19;102195.63;;;-1.45;97.70
37610;BME280;23457;51.966;8.230;2023-02-27T04:32:38;102195.31;;;-1.58;99.02
37610;BME280;23457;51.966;8.230;2023-02-27T04:35:23;102196.84;;;-1.60;98.88
37610;BME280;23457;51.966;8.230;2023-02-27T04:37:57;102195.31;;;-1.58;99.02
37610;BME280;23457;51.966;8.230;2023-02-27T04:40:34;102196.63;;;-1.53;99.53
37610;BME280;23457;51.966;8.230;2023-02-27T04:43:06;102203.72;;;-1.59;99.07
37610;BME280;23457;51.966;8.230;2023-02-27T04:45:36;102191.72;;;-1.89;99.87
37610;BME280;23457;51.966;8.230;2023-02-27T04:48:24;102199.78;;;-1.85;100.00
37610;BME280;23457;51.966;8.230;2023-02-27T04:51:13;102193.53;;;-1.59;100.00
37610;BME280;23457;51.966;8.230;2023-02-27T04:53:58;102193.31;;;-1.52;100.00
37610;BME280;23457;51.966;8.230;2023-02-27T04:56:32;102194.97;;;-1.53;99.45
37610;BME280;23457;51.966;8.230;2023-02-27T04:59:16;102190.81;;;-1.42;99.25
37610;BME280;23457;51.966;8.230;2023-02-27T05:01:59;102193.03;;;-1.55;99.48
37610;BME280;23457;51.966;8.230;2023-02-27T05:04:30;102195.09;;;-1.51;99.36
37610;BME280;23457;51.966;8.230;2023-02-27T05:06:59;102188.09;;;-1.54;99.32
37610;BME280;23457;51.966;8.230;2023-02-27T05:09:36;102193.56;;;-1.49;98.76
37610;BME280;23457;51.966;8.230;2023-02-27T05:18:08;102203.19;;;-1.65;98.85
37610;BME280;23457;51.966;8.230;2023-02-27T05:20:45;102203.19;;;-1.65;99.25
37610;BME280;23457;51.966;8.230;2023-02-27T05:28:52;102221.88;;;-1.75;100.00
37610;BME280;23457;51.966;8.230;2023-02-27T05:34:32;102223.94;;;-1.71;100.00
37610;BME280;23457;51.966;8.230;2023-02-27T05:37:11;102225.81;;;-1.78;100.00
37610;BME280;23457;51.966;8.230;2023-02-27T05:39:41;102222.22;;;-1.81;100.00
37610;BME280;23457;51.966;8.230;2023-02-27T05:42:15;102220.25;;;-1.64;100.00
37610;BME280;23457;51.966;8.230;2023-02-27T05:44:48;102220.84;;;-1.48;100.00
37610;BME280;23457;51.966;8.230;2023-02-27T05:47:20;102218.31;;;-1.48;100.00
37610;BME280;23457;51.966;8.230;2023-02-27T05:49:53;102224.41;;;-1.56;100.00
37610;BME280;23457;51.966;8.230;2023-02-27T05:52:23;102215.63;;;-1.50;100.00
37610;BME280;23457;51.966;8.230;2023-02-27T05:55:00;102221.88;;;-1.46;100.00
37610;BME280;23457;51.966;8.230;2023-02-27T05:57:40;102228.59;;;-1.28;100.00
37610;BME280;23457;51.966;8.230;2023-02-27T06:03:00;102219.03;;;-1.30;100.00
37610;BME280;23457;51.966;8.230;2023-02-27T06:05:27;102224.63;;;-1.34;100.00
37610;BME280;23457;51.966;8.230;2023-02-27T06:07:54;102214.47;;;-1.53;100.00
37610;BME280;23457;51.966;8.230;2023-02-27T06:10:21;102229.63;;;-1.55;100.00
37610;BME280;23457;51.966;8.230;2023-02-27T06:12:49;102234.88;;;-1.53;100.00
37610;BME280;23457;51.966;8.230;2023-02-27T06:15:15;102237.91;;;-1.57;100.00
37610;BME280;23457;51.966;8.230;2023-02-27T06:17:44;102234.19;;;-1.61;99.79
37610;BME280;23457;51.966;8.230;2023-02-27T06:20:11;102236.44;;;-1.64;100.00
37610;BME280;23457;51.966;8.230;2023-02-27T06:22:38;102233.78;;;-1.65;100.00
37610;BME280;23457;51.966;8.230;2023-02-27T06:25:05;102241.53;;;-1.64;99.93
37610;BME280;23457;51.966;8.230;2023-02-27T06:27:32;102245.28;;;-1.60;100.00
37610;BME280;23457;51.966;8.230;2023-02-27T06:29:59;102248.44;;;-1.63;100.00
37610;BME280;23457;51.966;8.230;2023-02-27T06:32:25;102256.97;;;-1.62;100.00
37610;BME280;23457;51.966;8.230;2023-02-27T06:34:53;102256.50;;;-1.58;100.00
37610;BME280;23457;51.966;8.230;2023-02-27T06:37:21;102258.59;;;-1.73;100.00
37610;BME280;23457;51.966;8.230;2023-02-27T06:39:48;102262.94;;;-1.72;100.00
37610;BME280;23457;51.966;8.230;2023-02-27T06:42:14;102260.31;;;-1.82;100.00
37610;BME280;23457;51.966;8.230;2023-02-27T06:44:41;102259.13;;;-1.86;100.00
37610;BME280;23457;51.966;8.230;2023-02-27T06:47:08;102258.94;;;-1.78;100.00
37610;BME280;23457;51.966;8.230;2023-02-27T06:49:35;102262.59;;;-1.66;100.00
37610;BME280;23457;51.966;8.230;2023-02-27T06:52:02;102267.19;;;-1.62;100.00
37610;BME280;23457;51.966;8.230;2023-02-27T06:54:28;102277.66;;;-1.59;99.68
37610;BME280;23457;51.966;8.230;2023-02-27T06:56:55;102277.19;;;-1.55;99.33
37610;BME280;23457;51.966;8.230;2023-02-27T06:59:22;102283.19;;;-1.55;99.79
37610;BME280;23457;51.966;8.230;2023-02-27T07:01:49;102286.06;;;-1.60;100.00
37610;BME280;23457;51.966;8.230;2023-02-27T07:04:16;102286.50;;;-1.56;100.00
37610;BME280;23457;51.966;8.230;2023-02-27T07:06:43;102283.31;;;-1.53;100.00
37610;BME280;23457;51.966;8.230;2023-02-27T07:09:30;102280.00;;;-1.52;100.00
37610;BME280;23457;51.966;8.230;2023-02-27T07:11:56;102279.75;;;-1.55;100.00
37610;BME280;23457;51.966;8.230;2023-02-27T07:14:24;102293.28;;;-1.46;100.00
37610;BME280;23457;51.966;8.230;2023-02-27T07:16:51;102287.34;;;-1.36;100.00
37610;BME280;23457;51.966;8.230;2023-02-27T07:19:22;102291.63;;;-1.27;100.00
37610;BME280;23457;51.966;8.230;2023-02-27T07:21:49;102300.84;;;-1.19;100.00
37610;BME280;23457;51.966;8.230;2023-02-27T07:24:16;102304.81;;;-1.41;100.00
37610;BME280;23457;51.966;8.230;2023-02-27T07:26:43;102307.41;;;-1.31;100.00
37610;BME280;23457;51.966;8.230;2023-02-27T07:29:09;102302.75;;;-1.16;100.00
37610;BME280;23457;51.966;8.230;2023-02-27T07:31:36;102302.81;;;-1.06;100.00
37610;BME280;23457;51.966;8.230;2023-02-27T07:34:03;102299.53;;;-0.95;100.00
37610;BME280;23457;51.966;8.230;2023-02-27T07:36:30;102305.69;;;-0.83;100.00
37610;BME280;23457;51.966;8.230;2023-02-27T07:38:57;102306.03;;;-0.88;100.00
37610;BME280;23457;51.966;8.230;2023-02-27T07:41:24;102306.59;;;-0.82;100.00
37610;BME280;23457;51.966;8.230;2023-02-27T07:43:58;102310.47;;;-0.67;100.00
37610;BME280;23457;51.966;8.230;2023-02-27T07:46:25;102312.88;;;-0.68;100.00
37610;BME280;23457;51.966;8.230;2023-02-27T07:48:53;102314.56;;;-0.59;100.00
37610;BME280;23457;51.966;8.230;2023-02-27T07:51:20;102312.28;;;-0.46;100.00
37610;BME280;23457;51.966;8.230;2023-02-27T07:53:47;102316.28;;;-0.39;99.97
37610;BME280;23457;51.966;8.230;2023-02-27T07:56:14;102322.44;;;-0.27;99.40
37610;BME280;23457;51.966;8.230;2023-02-27T07:58:41;102307.72;;;-0.19;98.85
37610;BME280;23457;51.966;8.230;2023-02-27T08:01:07;102306.44;;;-0.24;98.67
37610;BME280;23457;51.966;8.230;2023-02-27T08:03:34;102312.06;;;-0.08;98.44
37610;BME280;23457;51.966;8.230;2023-02-27T08:06:01;102312.59;;;-0.02;98.34
37610;BME280;23457;51.966;8.230;2023-02-27T08:08:28;102303.75;;;0.05;96.77
37610;BME280;23457;51.966;8.230;2023-02-27T08:10:55;102308.25;;;0.07;96.83
37610;BME280;23457;51.966;8.230;2023-02-27T08:13:22;102310.28;;;0.11;96.87
37610;BME280;23457;51.966;8.230;2023-02-27T08:16:08;102314.09;;;0.16;96.98
37610;BME280;23457;51.966;8.230;2023-02-27T08:18:35;102317.91;;;0.42;96.86
37610;BME280;23457;51.966;8.230;2023-02-27T08:21:02;102323.00;;;0.62;95.81
37610;BME280;23457;51.966;8.230;2023-02-27T08:23:31;102324.81;;;0.63;95.43
37610;BME280;23457;51.966;8.230;2023-02-27T08:26:01;102319.78;;;0.75;94.72
37610;BME280;23457;51.966;8.230;2023-02-27T08:28:28;102325.44;;;0.92;95.39
37610;BME280;23457;51.966;8.230;2023-02-27T08:30:55;102318.41;;;1.00;94.02
37610;BME280;23457;51.966;8.230;2023-02-27T08:33:23;102313.34;;;1.12;93.83
37610;BME280;23457;51.966;8.230;2023-02-27T08:35:49;102319.38;;;1.12;93.19
37610;BME280;23457;51.966;8.230;2023-02-27T08:38:16;102320.28;;;1.34;91.91
37610;BME280;23457;51.966;8.230;2023-02-27T08:40:43;102321.47;;;1.50;90.25
37610;BME280;23457;51.966;8.230;2023-02-27T08:43:10;102315.59;;;1.51;90.75
37610;BME280;23457;51.966;8.230;2023-02-27T08:45:36;102320.66;;;1.39;90.60
37610;BME280;23457;51.966;8.230;2023-02-27T08:48:03;102316.56;;;1.53;91.54
37610;BME280;23457;51.966;8.230;2023-02-27T08:50:30;102317.75;;;1.68;90.39
37610;BME280;23457;51.966;8.230;2023-02-27T08:52:57;102319.06;;;1.41;92.32
37610;BME280;23457;51.966;8.230;2023-02-27T08:55:24;102317.63;;;1.66;89.98
37610;BME280;23457;51.966;8.230;2023-02-27T08:57:50;102318.03;;;1.49;91.74
37610;BME280;23457;51.966;8.230;2023-02-27T09:00:17;102310.16;;;1.91;90.80
37610;BME280;23457;51.966;8.230;2023-02-27T09:02:44;102316.19;;;2.03;88.64
37610;BME280;23457;51.966;8.230;2023-02-27T09:05:11;102306.19;;;2.18;87.75
37610;BME280;23457;51.966;8.230;2023-02-27T09:07:39;102309.19;;;1.67;88.22
37610;BME280;23457;51.966;8.230;2023-02-27T09:10:06;102307.81;;;2.28;86.82
37610;BME280;23457;51.966;8.230;2023-02-27T09:12:32;102303.75;;;2.20;85.00
37610;BME280;23457;51.966;8.230;2023-02-27T09:14:59;102304.34;;;2.39;84.60
37610;BME280;23457;51.966;8.230;2023-02-27T09:17:26;102313.91;;;2.18;85.83
37610;BME280;23457;51.966;8.230;2023-02-27T09:19:53;102308.59;;;2.27;85.62
37610;BME280;23457;51.966;8.230;2023-02-27T09:22:23;102304.47;;;2.52;85.26
37610;BME280;23457;51.966;8.230;2023-02-27T09:24:50;102303.13;;;2.45;84.51
37610;BME280;23457;51.966;8.230;2023-02-27T09:27:16;102301.78;;;2.62;83.71
37610;BME280;23457;51.966;8.230;2023-02-27T09:29:43;102308.25;;;2.80;84.87
37610;BME280;23457;51.966;8.230;2023-02-27T09:32:10;102315.97;;;2.57;83.73
37610;BME280;23457;51.966;8.230;2023-02-27T09:34:38;102302.91;;;2.77;82.17
37610;BME280;23457;51.966;8.230;2023-02-27T09:37:04;102307.81;;;2.86;83.22
37610;BME280;23457;51.966;8.230;2023-02-27T09:39:31;102317.72;;;3.05;83.11
37610;BME280;23457;51.966;8.230;2023-02-27T09:42:16;102309.78;;;3.13;82.11
37610;BME280;23457;51.966;8.230;2023-02-27T09:44:47;102313.53;;;3.30;80.54
37610;BME280;23457;51.966;8.230;2023-02-27T09:52:31;102327.81;;;3.38;83.48
37610;BME280;23457;51.966;8.230;2023-02-27T09:55:01;102335.19;;;3.34;81.62
37610;BME280;23457;51.966;8.230;2023-02-27T09:57:48;102344.41;;;3.55;81.93
37610;BME280;23457;51.966;8.230;2023-02-27T10:06:26;102337.75;;;3.70;78.84
37610;BME280;23457;51.966;8.230;2023-02-27T10:09:39;102334.19;;;3.80;82.98
37610;BME280;23457;51.966;8.230;2023-02-27T10:12:21;102329.63;;;4.14;83.55
37610;BME280;23457;51.966;8.230;2023-02-27T10:15:02;102335.38;;;4.23;79.42
37610;BME280;23457;51.966;8.230;2023-02-27T10:17:36;102334.53;;;4.36;76.39
37610;BME280;23457;51.966;8.230;2023-02-27T10:20:12;102316.97;;;4.17;75.61
37610;BME280;23457;51.966;8.230;2023-02-27T10:22:44;102321.19;;;4.54;77.24
37610;BME280;23457;51.966;8.230;2023-02-27T10:25:17;102321.34;;;4.31;73.50
37610;BME280;23457;51.966;8.230;2023-02-27T10:28:08;102322.75;;;4.01;73.49
37610;BME280;23457;51.966;8.230;2023-02-27T10:30:36;102320.03;;;4.11;73.81
37610;BME280;23457;51.966;8.230;2023-02-27T10:33:11;102326.19;;;3.88;73.43
37610;BME280;23457;51.966;8.230;2023-02-27T10:35:43;102318.56;;;4.15;72.72
37610;BME280;23457;51.966;8.230;2023-02-27T10:38:32;102319.16;;;3.86;72.83
37610;BME280;23457;51.966;8.230;2023-02-27T10:40:58;102328.97;;;3.91;71.93
37610;BME280;23457;51.966;8.230;2023-02-27T10:43:25;102318.75;;;3.80;71.74
37610;BME280;23457;51.966;8.230;2023-02-27T10:45:52;102311.69;;;4.02;72.40
37610;BME280;23457;51.966;8.230;2023-02-27T10:48:20;102312.47;;;4.01;71.51
37610;BME280;23457;51.966;8.230;2023-02-27T10:50:49;102312.66;;;4.29;71.79
37610;BME280;23457;51.966;8.230;2023-02-27T10:53:25;102309.00;;;4.01;71.54
37610;BME280;23457;51.966;8.230;2023-02-27T10:56:04;102313.63;;;4.44;70.84
37610;BME280;23457;51.966;8.230;2023-02-27T10:58:36;102310.09;;;4.42;70.46
37610;BME280;23457;51.966;8.230;2023-02-27T11:01:06;102306.47;;;4.14;70.77
37610;BME280;23457;51.966;8.230;2023-02-27T11:06:24;102311.38;;;4.49;68.82
37610;BME280;23457;51.966;8.230;2023-02-27T11:11:43;102304.00;;;5.08;67.37
37610;BME280;23457;51.966;8.230;2023-02-27T11:14:29;102296.59;;;4.99;64.79
37610;BME280;23457;51.966;8.230;2023-02-27T11:17:01;102290.22;;;5.07;66.10
37610;BME280;23457;51.966;8.230;2023-02-27T11:19:32;102290.06;;;5.04;64.70
37610;BME280;23457;51.966;8.230;2023-02-27T11:22:04;102290.28;;;5.35;67.18
37610;BME280;23457;51.966;8.230;2023-02-27T11:24:32;102288.84;;;5.12;63.02
37610;BME280;23457;51.966;8.230;2023-02-27T11:27:20;102280.91;;;5.22;62.20
37610;BME280;23457;51.966;8.230;2023-02-27T11:30:19;102279.25;;;5.10;61.80
37610;BME280;23457;51.966;8.230;2023-02-27T11:32:48;102281.28;;;5.28;61.56
37610;BME280;23457;51.966;8.230;2023-02-27T11:37:58;102281.94;;;4.85;62.59
37610;BME280;23457;51.966;8.230;2023-02-27T11:40:39;102268.47;;;5.02;63.24
37610;BME280;23457;51.966;8.230;2023-02-27T11:45:42;102260.03;;;5.88;58.91
37610;BME280;23457;51.966;8.230;2023-02-27T11:54:39;102254.13;;;5.48;58.37
37610;BME280;23457;51.966;8.230;2023-02-27T11:57:31;102254.19;;;5.63;57.96
37610;BME280;23457;51.966;8.230;2023-02-27T12:00:16;102263.03;;;5.81;56.52
37610;BME280;23457;51.966;8.230;2023-02-27T12:05:53;102265.13;;;6.45;56.35
37610;BME280;23457;51.966;8.230;2023-02-27T12:08:49;102249.28;;;6.10;57.27
37610;BME280;23457;51.966;8.230;2023-02-27T12:11:26;102257.19;;;6.42;57.17
37610;BME280;23457;51.966;8.230;2023-02-27T12:14:20;102248.84;;;6.02;56.20
37610;BME280;23457;51.966;8.230;2023-02-27T12:16:56;102259.91;;;5.87;58.06
37610;BME280;23457;51.966;8.230;2023-02-27T12:19:54;102258.44;;;5.90;56.63
37610;BME280;23457;51.966;8.230;2023-02-27T12:22:26;102268.31;;;5.97;56.50
37610;BME280;23457;51.966;8.230;2023-02-27T12:25:46;102252.94;;;5.71;57.27
37610;BME280;23457;51.966;8.230;2023-02-27T12:27:59;102256.28;;;5.98;56.97
37610;BME280;23457;51.966;8.230;2023-02-27T12:30:35;102259.00;;;5.86;57.47
37610;BME280;23457;51.966;8.230;2023-02-27T12:33:43;102264.41;;;5.89;56.35
37610;BME280;23457;51.966;8.230;2023-02-27T12:36:12;102259.88;;;5.72;57.10
37610;BME280;23457;51.966;8.230;2023-02-27T12:38:40;102258.84;;;5.68;56.30
37610;BME280;23457;51.966;8.230;2023-02-27T12:41:14;102253.19;;;6.03;55.89
37610;BME280;23457;51.966;8.230;2023-02-27T12:46:48;102263.16;;;5.97;55.85
37610;BME280;23457;51.966;8.230;2023-02-27T12:49:55;102264.56;;;6.22;55.54
37610;BME280;23457;51.966;8.230;2023-02-27T12:55:14;102254.78;;;6.01;54.46
37610;BME280;23457;51.966;8.230;2023-02-27T12:58:23;102259.97;;;6.01;54.87
37610;BME280;23457;51.966;8.230;2023-02-27T13:00:59;102256.84;;;6.22;54.72
37610;BME280;23457;51.966;8.230;2023-02-27T13:03:46;102261.66;;;6.01;55.00
37610;BME280;23457;51.966;8.230;2023-02-27T13:06:28;102266.91;;;5.74;55.58
37610;BME280;23457;51.966;8.230;2023-02-27T13:11:50;102265.69;;;5.68;56.12
37610;BME280;23457;51.966;8.230;2023-02-27T13:19:50;102255.56;;;5.58;56.79
37610;BME280;23457;51.966;8.230;2023-02-27T13:24:57;102251.19;;;5.85;55.34
37610;BME280;23457;51.966;8.230;2023-02-27T13:27:30;102249.94;;;5.78;56.48
37610;BME280;23457;51.966;8.230;2023-02-27T13:32:42;102248.59;;;5.85;55.81
37610;BME280;23457;51.966;8.230;2023-02-27T13:40:45;102237.34;;;6.27;55.24
37610;BME280;23457;51.966;8.230;2023-02-27T13:43:32;102235.34;;;6.52;53.57
37610;BME280;23457;51.966;8.230;2023-02-27T13:46:26;102228.22;;;6.48;54.97
37610;BME280;23457;51.966;8.230;2023-02-27T13:51:56;102232.56;;;6.03;53.19
37610;BME280;23457;51.966;8.230;2023-02-27T13:54:33;102233.16;;;6.14;53.81
37610;BME280;23457;51.966;8.230;2023-02-27T13:57:15;102228.19;;;6.02;54.05
37610;BME280;23457;51.966;8.230;2023-02-27T13:59:51;102225.06;;;6.23;53.78
37610;BME280;23457;51.966;8.230;2023-02-27T14:02:34;102228.00;;;6.43;54.84
37610;BME280;23457;51.966;8.230;2023-02-27T14:05:28;102230.53;;;5.85;53.16
37610;BME280;23457;51.966;8.230;2023-02-27T14:08:06;102232.56;;;6.03;53.18
37610;BME280;23457;51.966;8.230;2023-02-27T14:10:36;102234.09;;;5.72;54.15
37610;BME280;23457;51.966;8.230;2023-02-27T14:13:20;102234.41;;;5.91;54.56
37610;BME280;23457;51.966;8.230;2023-02-27T14:15:55;102236.28;;;6.23;52.81
37610;BME280;23457;51.966;8.230;2023-02-27T14:18:47;102230.03;;;6.34;53.17
37610;BME280;23457;51.966;8.230;2023-02-27T14:26:54;102230.19;;;6.52;51.51
37610;BME280;23457;51.966;8.230;2023-02-27T14:29:25;102230.66;;;6.45;52.31
37610;BME280;23457;51.966;8.230;2023-02-27T14:32:03;102229.66;;;6.58;51.79
37610;BME280;23457;51.966;8.230;2023-02-27T14:34:30;102224.34;;;5.96;52.69
37610;BME280;23457;51.966;8.230;2023-02-27T14:37:00;102223.66;;;6.13;52.96
37610;BME280;23457;51.966;8.230;2023-02-27T14:39:37;102237.72;;;6.18;51.88
37610;BME280;23457;51.966;8.230;2023-02-27T14:42:25;102235.03;;;6.17;52.45
37610;BME280;23457;51.966;8.230;2023-02-27T14:44:56;102232.19;;;6.27;53.30
37610;BME280;23457;51.966;8.230;2023-02-27T14:49:49;102229.66;;;6.58;52.48
37610;BME280;23457;51.966;8.230;2023-02-27T14:52:20;102228.25;;;6.33;53.15
37610;BME280;23457;51.966;8.230;2023-02-27T14:54:48;102232.19;;;6.27;52.82
37610;BME280;23457;51.966;8.230;2023-02-27T14:57:24;102230.78;;;6.63;52.95
37610;BME280;23457;51.966;8.230;2023-02-27T14:59:53;102231.81;;;6.21;51.74
37610;BME280;23457;51.966;8.230;2023-02-27T15:02:23;102244.75;;;5.91;53.07
37610;BME280;23457;51.966;8.230;2023-02-27T15:05:15;102238.00;;;5.93;53.20
37610;BME280;23457;51.966;8.230;2023-02-27T15:07:46;102240.59;;;5.80;54.16
37610;BME280;23457;51.966;8.230;2023-02-27T15:10:21;102235.31;;;6.06;54.22
37610;BME280;23457;51.966;8.230;2023-02-27T15:12:51;102230.13;;;6.21;53.42
37610;BME280;23457;51.966;8.230;2023-02-27T15:15:19;102234.81;;;6.58;53.37
37610;BME280;23457;51.966;8.230;2023-02-27T15:17:50;102235.78;;;6.91;52.88
37610;BME280;23457;51.966;8.230;2023-02-27T15:20:30;102237.53;;;6.75;51.92
37610;BME280;23457;51.966;8.230;2023-02-27T15:23:20;102242.41;;;6.40;52.39
37610;BME280;23457;51.966;8.230;2023-02-27T15:25:47;102243.78;;;6.19;53.40
37610;BME280;23457;51.966;8.230;2023-02-27T15:28:25;102250.25;;;5.97;53.75
37610;BME280;23457;51.966;8.230;2023-02-27T15:30:54;102248.41;;;5.95;54.26
37610;BME280;23457;51.966;8.230;2023-02-27T15:33:31;102245.00;;;6.10;54.49
37610;BME280;23457;51.966;8.230;2023-02-27T15:35:59;102241.00;;;6.01;55.23
37610;BME280;23457;51.966;8.230;2023-02-27T15:38:32;102247.50;;;6.24;54.57
37610;BME280;23457;51.966;8.230;2023-02-27T15:41:00;102244.84;;;6.07;54.96
37610;BME280;23457;51.966;8.230;2023-02-27T15:43:28;102245.38;;;6.02;54.04
37610;BME280;23457;51.966;8.230;2023-02-27T15:45:56;102249.63;;;6.31;53.83